Buoy 46915

sailwx.info

Track history (hours):
 
Tides and Currents Weather Stations Pressure Air Temp Water Temp Dewpoint Dewpoint Depression Visibility Wind Speed Wind Dir Waves Ship Positions

Drifting buoy 46915

Last reported at 2017-Nov-21 14:00 UTC. Time now 2017-Nov-21 15:32 UTC.
Position N 45°35' W 134°36'.

Barometer 988.2 mb
Water temperature 11.6 ° C

Date/timePositionNaut miles runAvg speedWind from/ knotsBaromVisibWave heightAir tempDewpointWater temp
2017-Nov-21 14:00N 45°35' W 134°36'0 0.4 988.2 11.6
2017-Nov-21 13:00N 45°35' W 134°37'4 4.2 989.0 11.5
2017-Nov-21 12:00N 45°31' W 134°34'3 3.3 990.1 11.6
2017-Nov-21 11:00N 45°34' W 134°35'3 0.8 991.1 11.6
2017-Nov-21 07:00N 45°31' W 134°34'1 1.2 995.6 11.5
2017-Nov-21 06:00N 45°32' W 134°34'1 1.0 997.4 11.5
2017-Nov-21 05:00N 45°32' W 134°32'1 1.0 999.8 11.5
2017-Nov-21 04:00N 45°31' W 134°31'0 0.0 1001.0 11.5
2017-Nov-21 03:00N 45°31' W 134°31'1 1.4 1001.6 11.4
2017-Nov-21 02:00N 45°31' W 134°29'1 0.6 1002.2 11.4
2017-Nov-21 01:00N 45°31' W 134°29'2 1.7 1002.9 11.4
2017-Nov-21 00:00N 45°31' W 134°27'1 0.8 1002.8 11.4
2017-Nov-20 23:00N 45°31' W 134°28'1 1.0 1003.4 11.4
2017-Nov-20 22:00N 45°31' W 134°29'0 0.0 1004.5 11.4
2017-Nov-20 21:00N 45°31' W 134°29'1 0.6 1004.7 11.4
2017-Nov-20 20:00N 45°30' W 134°29'0 0.0 1005.0 11.4
2017-Nov-20 19:00N 45°30' W 134°29'0 0.4 1005.0 11.4
2017-Nov-20 18:00N 45°30' W 134°30'1 0.7 1004.9 11.4
2017-Nov-20 17:00N 45°29' W 134°31'1 1.4 1004.4 11.4
2017-Nov-20 16:00N 45°29' W 134°32'1 0.7 1004.1 11.4
2017-Nov-20 15:00N 45°28' W 134°32'0 0.4 1003.8 11.4
2017-Nov-20 14:00N 45°28' W 134°32'0 0.0 1003.9 11.4
2017-Nov-20 13:00N 45°28' W 134°32'1 1.4 1003.7 11.4
2017-Nov-20 12:00N 45°29' W 134°34'0 0.0 1003.7 11.4
2017-Nov-20 10:00N 45°29' W 134°34'0 0.0 1003.9 11.4
2017-Nov-20 08:00N 45°29' W 134°34'0 0.0 1004.6 11.4
2017-Nov-20 07:00N 45°29' W 134°34'1 0.8 1004.5 11.5
2017-Nov-20 06:00N 45°29' W 134°35'1 0.7 1004.5 11.5
2017-Nov-20 05:00N 45°29' W 134°36'0 0.0 1004.6 11.5
2017-Nov-20 04:00N 45°29' W 134°36'1 0.7 1004.5 11.5
2017-Nov-20 03:00N 45°30' W 134°37'0 0.0 1004.5 11.5
2017-Nov-20 02:00N 45°30' W 134°37'1 1.3 1004.3 11.5
2017-Nov-20 01:00N 45°31' W 134°37'0 0.0 1004.2 11.5
2017-Nov-20 00:00N 45°31' W 134°37'1 1.0 1004.2 11.5
2017-Nov-19 23:00N 45°32' W 134°38'0 0.0 1004.2 11.6
2017-Nov-19 22:00N 45°32' W 134°38'1 0.7 1004.2 11.5
2017-Nov-19 21:00N 45°32' W 134°38'0 0.4 1004.5 11.5
2017-Nov-19 20:00N 45°32' W 134°37'1 0.7 1005.1 11.5
2017-Nov-19 19:00N 45°33' W 134°37'1 0.7 1005.3 11.5
2017-Nov-19 18:00N 45°34' W 134°36'0 0.0 1005.4 11.5
2017-Nov-19 17:00N 45°34' W 134°36'2 1.8 1005.1 11.6
2017-Nov-19 16:00N 45°35' W 134°35'1 0.7 1004.9 11.6
2017-Nov-19 15:00N 45°35' W 134°35'2 1.8 1004.9 11.6
2017-Nov-19 14:00N 45°37' W 134°35'1 0.6 1005.1 11.6
2017-Nov-19 13:00N 45°37' W 134°35'2 1.8 1005.2 11.6
2017-Nov-19 12:00N 45°39' W 134°35'0 0.0 1005.1 11.6
2017-Nov-19 11:00N 45°39' W 134°35'0 0.0 1005.4 11.6
2017-Nov-19 10:00N 45°39' W 134°35'1 0.1 1005.2 11.6
2017-Nov-19 06:00N 45°38' W 134°35'0 0.4 1005.3 11.6
2017-Nov-19 05:00N 45°38' W 134°36'0 0.4 1005.1 11.6
2017-Nov-19 04:00N 45°38' W 134°37'1 0.7 1005.2 11.6
2017-Nov-19 03:00N 45°38' W 134°37'1 0.7 1005.4 11.6
2017-Nov-19 02:00N 45°37' W 134°38'1 0.8 1004.7 11.6
2017-Nov-19 01:00N 45°37' W 134°39'0 0.0 1005.2 11.6
2017-Nov-19 00:00N 45°37' W 134°39'1 0.6 1005.0 11.6
2017-Nov-18 23:00N 45°37' W 134°39'0 0.0 1005.9 11.6
2017-Nov-18 22:00N 45°37' W 134°39'1 0.7 1007.0 11.7
2017-Nov-18 20:00N 45°36' W 134°41'1 0.7 1008.2 11.6
2017-Nov-18 19:00N 45°35' W 134°41'1 1.4 1008.7 11.6
2017-Nov-18 18:00N 45°35' W 134°43'1 0.6 1009.0 11.6
2017-Nov-18 17:00N 45°34' W 134°43'0 0.4 1009.4 11.6
2017-Nov-18 16:00N 45°34' W 134°43'1 1.3 1009.6 11.7
2017-Nov-18 15:00N 45°33' W 134°43'2 1.7 1010.1 11.8
2017-Nov-18 14:00N 45°32' W 134°45'1 0.3 1011.0 12.0
2017-Nov-18 12:00N 45°31' W 134°45'2 1.8 1012.5 12.0
2017-Nov-18 11:00N 45°29' W 134°45'0 0.0 1013.6 12.0
2017-Nov-18 10:00N 45°29' W 134°45'0 0.0 1014.5 12.0
2017-Nov-18 07:00N 45°29' W 134°45'1 0.8 1016.7 11.8
2017-Nov-18 06:00N 45°29' W 134°46'0 0.4 1016.9 11.8
2017-Nov-18 05:00N 45°29' W 134°46'1 1.0 1017.4 11.8
2017-Nov-18 04:00N 45°29' W 134°47'1 0.7 1017.8 11.8
2017-Nov-18 03:00N 45°28' W 134°47'0 0.0 1018.2 11.8
2017-Nov-18 02:00N 45°28' W 134°47'1 0.6 1018.3 11.8
2017-Nov-18 01:00N 45°28' W 134°47'0 0.4 1018.7 11.8
2017-Nov-18 00:00N 45°28' W 134°48'0 0.0 1019.0 11.8
2017-Nov-17 23:00N 45°28' W 134°48'0 0.0 1019.3 11.8
2017-Nov-17 22:00N 45°28' W 134°48'2 0.8 1019.9 11.8
2017-Nov-17 20:00N 45°28' W 134°50'1 0.6 1020.5 11.7
2017-Nov-17 19:00N 45°28' W 134°50'0 0.4 1020.3 11.9
2017-Nov-17 18:00N 45°28' W 134°51'0 0.4 1020.0 11.9
2017-Nov-17 17:00N 45°28' W 134°52'1 0.6 1019.7 11.9
2017-Nov-17 16:00N 45°29' W 134°52'1 0.7 1019.4 11.9
2017-Nov-17 15:00N 45°28' W 134°52'0 0.4 1018.8 11.9
2017-Nov-17 14:00N 45°28' W 134°53'0 0.0 1018.6 11.8
2017-Nov-17 13:00N 45°28' W 134°53'0 0.0 1018.4 11.8
2017-Nov-17 12:00N 45°28' W 134°53'2 1.8 1018.5 11.8
2017-Nov-17 11:00N 45°30' W 134°53'1 1.3 1018.2 11.8
2017-Nov-17 10:00N 45°29' W 134°53'1 0.4 1017.9 11.8
2017-Nov-17 07:00N 45°30' W 134°53'0 0.0 1016.4 11.9
2017-Nov-17 05:00N 45°30' W 134°53'0 0.4 1015.2 11.9
2017-Nov-17 04:00N 45°30' W 134°53'1 0.7 1014.7 11.9
2017-Nov-17 03:00N 45°31' W 134°53'1 0.6 1014.2 11.9
2017-Nov-17 02:00N 45°31' W 134°53'1 1.3 1013.5 12.0
2017-Nov-17 01:00N 45°32' W 134°54'1 0.6 1012.9 12.0
2017-Nov-17 00:00N 45°32' W 134°54'1 1.3 1012.1 12.0
2017-Nov-16 23:00N 45°33' W 134°55'0 0.0 1011.5 12.0
2017-Nov-16 22:00N 45°33' W 134°55'1 1.3 1011.0 12.0
2017-Nov-16 21:00N 45°34' W 134°54'0 0.0 1010.3 12.0
2017-Nov-16 20:00N 45°34' W 134°54'1 0.7 1009.9 12.0
2017-Nov-16 19:00N 45°35' W 134°55'0 0.0 1009.5 12.0
2017-Nov-16 18:00N 45°35' W 134°55'0 0.4 1008.4 12.1
2017-Nov-16 17:00N 45°35' W 134°54'1 0.7 1007.9 12.1
2017-Nov-16 16:00N 45°35' W 134°53'1 0.6 1006.9 12.1
2017-Nov-16 15:00N 45°36' W 134°53'0 0.0 1006.1 12.0
2017-Nov-16 14:00N 45°36' W 134°53'1 1.2 1005.7 12.0
2017-Nov-16 13:00N 45°37' W 134°53'0 0.4 1004.9 12.0
2017-Nov-16 12:00N 45°37' W 134°54'0 0.0 1004.5 12.0
2017-Nov-16 11:00N 45°37' W 134°54'0 0.0 1004.1 12.0
2017-Nov-16 10:00N 45°37' W 134°54'1 0.4 1003.9 12.0
2017-Nov-16 07:00N 45°38' W 134°55'1 0.6 1003.4 12.0
2017-Nov-16 06:00N 45°39' W 134°55'1 1.0 1002.9 12.0
2017-Nov-16 05:00N 45°40' W 134°56'1 0.6 1002.8 12.1
2017-Nov-16 04:00N 45°40' W 134°56'1 0.6 1002.7 12.2
2017-Nov-16 03:00N 45°41' W 134°56'0 0.4 1002.8 12.3
2017-Nov-16 02:00N 45°41' W 134°56'0 0.0 1002.3 12.4
2017-Nov-16 01:00N 45°41' W 134°56'2 1.8 1002.2 12.4
2017-Nov-16 00:00N 45°43' W 134°57'0 0.0 1001.8 12.4
2017-Nov-15 23:00N 45°43' W 134°57'1 1.3 1001.8 12.5
2017-Nov-15 22:00N 45°44' W 134°58'1 0.7 1001.8 12.5
2017-Nov-15 21:00N 45°44' W 134°57'0 0.0 1001.7 12.5
2017-Nov-15 20:00N 45°44' W 134°57'1 1.4 1001.9 12.5
2017-Nov-15 19:00N 45°45' W 134°59'0 0.0 1001.8 12.5
2017-Nov-15 18:00N 45°45' W 134°59'1 1.0 1001.8 12.4
2017-Nov-15 17:00N 45°46' W 135°00'1 1.0 1001.5 12.4
2017-Nov-15 16:00N 45°46' W 135°01'1 0.6 1001.1 12.5
2017-Nov-15 15:00N 45°47' W 135°01'0 0.4 1000.9 12.5
2017-Nov-15 14:00N 45°47' W 135°02'1 0.8 1001.3 12.5
2017-Nov-15 13:00N 45°47' W 135°03'1 1.0 1000.8 12.5
2017-Nov-15 12:00N 45°47' W 135°04'2 2.0 1000.9 12.5
2017-Nov-15 11:00N 45°49' W 135°05'0 0.0 1000.6 12.5
2017-Nov-15 08:00N 45°49' W 135°05'0 0.0 999.9 12.6
2017-Nov-15 07:00N 45°49' W 135°05'1 0.8 999.8 12.6
2017-Nov-15 06:00N 45°49' W 135°07'1 1.2 999.2 12.5
2017-Nov-15 05:00N 45°50' W 135°07'1 1.4 999.1 12.5
2017-Nov-15 04:00N 45°51' W 135°08'0 0.4 999.0 12.5
2017-Nov-15 03:00N 45°51' W 135°09'0 0.0 998.9 12.5
2017-Nov-15 02:00N 45°51' W 135°09'2 2.4 999.2 12.5
2017-Nov-15 01:00N 45°52' W 135°12'0 0.0 999.7 12.5
2017-Nov-15 00:00N 45°52' W 135°12'0 0.0 999.8 12.5
2017-Nov-14 23:00N 45°52' W 135°12'2 1.8 1000.2 12.5
2017-Nov-14 22:00N 45°53' W 135°14'1 1.3 1000.7 12.5
2017-Nov-14 21:00N 45°53' W 135°16'0 0.4 1001.3 12.5
2017-Nov-14 20:00N 45°53' W 135°17'1 1.4 1002.0 12.5
2017-Nov-14 19:00N 45°52' W 135°19'0 0.0 1002.7 12.5
2017-Nov-14 18:00N 45°52' W 135°19'0 0.0 1002.3 12.5
2017-Nov-14 17:00N 45°52' W 135°19'0 0.4 1002.4 12.6
2017-Nov-14 16:00N 45°52' W 135°18'1 1.3 1002.3 12.7
2017-Nov-14 15:00N 45°52' W 135°20'0 0.0 1002.6 12.7
2017-Nov-14 14:00N 45°52' W 135°20'0 0.4 1003.3 12.7
2017-Nov-14 13:00N 45°52' W 135°20'0 0.0 1003.4 12.8
2017-Nov-14 12:00N 45°52' W 135°20'4 4.1 1004.0 12.8
2017-Nov-14 11:00N 45°55' W 135°25'0 0.1 1004.0 12.8
2017-Nov-14 06:00N 45°55' W 135°25'1 1.3 1005.0 12.8
2017-Nov-14 05:00N 45°55' W 135°26'1 0.8 1004.9 12.8
2017-Nov-14 04:00N 45°55' W 135°28'1 0.8 1005.0 12.8
2017-Nov-14 03:00N 45°55' W 135°29'0 0.4 1004.5 12.8
2017-Nov-14 02:00N 45°55' W 135°29'2 1.7 1004.0 12.8
2017-Nov-14 01:00N 45°55' W 135°32'0 0.0 1004.1 12.8
2017-Nov-14 00:00N 45°55' W 135°32'0 0.0 1004.1 12.8
2017-Nov-13 23:00N 45°55' W 135°32'0 0.4 1004.7 12.8
2017-Nov-13 22:00N 45°55' W 135°31'0 0.0 1005.8 12.8
2017-Nov-13 21:00N 45°55' W 135°31'0 0.0 1006.9 12.8
2017-Nov-13 20:00N 45°55' W 135°31'2 1.8 1007.7 12.8
2017-Nov-13 19:00N 45°55' W 135°34'1 1.0 1008.2 12.9
2017-Nov-13 18:00N 45°56' W 135°35'0 0.0 1008.2 12.9
2017-Nov-13 17:00N 45°56' W 135°35'2 1.7 1008.1 12.9
2017-Nov-13 16:00N 45°57' W 135°37'1 0.8 1007.7 12.8
2017-Nov-13 15:00N 45°57' W 135°38'1 0.6 1007.1 12.8
2017-Nov-13 14:00N 45°58' W 135°38'0 0.4 1006.5 12.8
2017-Nov-13 13:00N 45°58' W 135°38'3 2.8 1005.8 12.7
2017-Nov-13 12:00N 45°59' W 135°41'1 0.7 1005.0 12.7
2017-Nov-13 11:00N 45°59' W 135°41'1 0.2 1004.3 12.7
2017-Nov-13 07:00N 45°59' W 135°41'1 1.2 1001.6 12.6
2017-Nov-13 06:00N 46°01' W 135°41'1 0.7 1001.0 12.6
2017-Nov-13 05:00N 46°01' W 135°41'1 0.7 1000.5 12.6
2017-Nov-13 04:00N 46°02' W 135°40'1 0.6 1000.8 12.7
2017-Nov-13 03:00N 46°02' W 135°40'1 0.6 1000.7 12.7
2017-Nov-13 02:00N 46°03' W 135°40'3 2.7 1000.3 12.7
2017-Nov-13 01:00N 46°05' W 135°38'0 0.0 1000.7 12.7
2017-Nov-13 00:00N 46°05' W 135°38'0 0.0 1000.7 12.7
2017-Nov-12 23:00N 46°05' W 135°38'1 1.4 1001.2 12.6
2017-Nov-12 22:00N 46°06' W 135°40'1 1.5 1001.5 12.6
2017-Nov-12 21:00N 46°07' W 135°41'0 0.0 1002.4 12.6
2017-Nov-12 20:00N 46°07' W 135°41'1 1.0 1002.8 12.6
2017-Nov-12 19:00N 46°08' W 135°43'1 1.0 1003.0 12.6
2017-Nov-12 18:00N 46°08' W 135°44'1 0.7 1003.0 12.6
2017-Nov-12 17:00N 46°08' W 135°44'0 0.0 1003.1 12.5
2017-Nov-12 16:00N 46°08' W 135°44'0 0.4 1002.8 12.5
2017-Nov-12 15:00N 46°08' W 135°45'1 0.6 1002.9 12.5
2017-Nov-12 14:00N 46°07' W 135°45'1 0.7 1002.7 12.5
2017-Nov-12 13:00N 46°07' W 135°44'1 1.0 1002.8 12.5
2017-Nov-12 12:00N 46°07' W 135°43'0 0.0 1002.9 12.5
2017-Nov-12 11:00N 46°07' W 135°43'1 0.2 1003.2 12.5
2017-Nov-12 07:00N 46°08' W 135°43'1 0.7 1004.0 12.5
2017-Nov-12 06:00N 46°08' W 135°44'1 1.0 1003.7 12.5
2017-Nov-12 05:00N 46°09' W 135°45'1 0.7 1003.8 12.5
2017-Nov-12 04:00N 46°10' W 135°46'1 0.8 1003.9 12.5
2017-Nov-12 03:00N 46°10' W 135°47'1 1.4 1003.9 12.5
2017-Nov-12 02:00N 46°10' W 135°49'1 1.5 1004.4 12.5
2017-Nov-12 01:00N 46°09' W 135°50'3 3.5 1004.6 12.5
2017-Nov-12 00:00N 46°07' W 135°53'0 0.0 1005.2 12.6
2017-Nov-11 23:00N 46°07' W 135°53'0 0.2 1005.6 12.5
2017-Nov-11 21:00N 46°07' W 135°53'1 0.6 1007.2 12.5
2017-Nov-11 20:00N 46°06' W 135°53'0 0.4 1007.7 12.5
2017-Nov-11 19:00N 46°06' W 135°52'1 0.8 1007.8 12.5
2017-Nov-11 18:00N 46°06' W 135°51'1 1.5 1007.8 12.5
2017-Nov-11 17:00N 46°07' W 135°52'1 0.7 1007.7 12.5
2017-Nov-11 16:00N 46°08' W 135°53'0 0.0 1007.8 12.5
2017-Nov-11 15:00N 46°08' W 135°53'1 1.3 1007.8 12.5
2017-Nov-11 14:00N 46°09' W 135°53'   1007.6 12.5
Track history (hours):
 
Tides and Currents Weather Stations Pressure Air Temp Water Temp Dewpoint Dewpoint Depression Visibility Wind Speed Wind Dir Waves Ship Positions

Drifting buoy 46915

Last reported at 2017-Nov-21 14:00 UTC. Time now 2017-Nov-21 15:32 UTC.
Position N 45°35' W 134°36'.

Barometer 988.2 mb
Water temperature 11.6 ° C

Date/timePositionNaut miles runAvg speedWind from/ knotsBaromVisibWave heightAir tempDewpointWater temp
2017-Nov-21 14:00N 45°35' W 134°36'0 0.4 988.2 11.6
2017-Nov-21 13:00N 45°35' W 134°37'4 4.2 989.0 11.5
2017-Nov-21 12:00N 45°31' W 134°34'3 3.3 990.1 11.6
2017-Nov-21 11:00N 45°34' W 134°35'3 0.8 991.1 11.6
2017-Nov-21 07:00N 45°31' W 134°34'1 1.2 995.6 11.5
2017-Nov-21 06:00N 45°32' W 134°34'1 1.0 997.4 11.5
2017-Nov-21 05:00N 45°32' W 134°32'1 1.0 999.8 11.5
2017-Nov-21 04:00N 45°31' W 134°31'0 0.0 1001.0 11.5
2017-Nov-21 03:00N 45°31' W 134°31'1 1.4 1001.6 11.4
2017-Nov-21 02:00N 45°31' W 134°29'1 0.6 1002.2 11.4
2017-Nov-21 01:00N 45°31' W 134°29'2 1.7 1002.9 11.4
2017-Nov-21 00:00N 45°31' W 134°27'1 0.8 1002.8 11.4
2017-Nov-20 23:00N 45°31' W 134°28'1 1.0 1003.4 11.4
2017-Nov-20 22:00N 45°31' W 134°29'0 0.0 1004.5 11.4
2017-Nov-20 21:00N 45°31' W 134°29'1 0.6 1004.7 11.4
2017-Nov-20 20:00N 45°30' W 134°29'0 0.0 1005.0 11.4
2017-Nov-20 19:00N 45°30' W 134°29'0 0.4 1005.0 11.4
2017-Nov-20 18:00N 45°30' W 134°30'1 0.7 1004.9 11.4
2017-Nov-20 17:00N 45°29' W 134°31'1 1.4 1004.4 11.4
2017-Nov-20 16:00N 45°29' W 134°32'1 0.7 1004.1 11.4
2017-Nov-20 15:00N 45°28' W 134°32'0 0.4 1003.8 11.4
2017-Nov-20 14:00N 45°28' W 134°32'0 0.0 1003.9 11.4
2017-Nov-20 13:00N 45°28' W 134°32'1 1.4 1003.7 11.4
2017-Nov-20 12:00N 45°29' W 134°34'0 0.0 1003.7 11.4
2017-Nov-20 10:00N 45°29' W 134°34'0 0.0 1003.9 11.4
2017-Nov-20 08:00N 45°29' W 134°34'0 0.0 1004.6 11.4
2017-Nov-20 07:00N 45°29' W 134°34'1 0.8 1004.5 11.5
2017-Nov-20 06:00N 45°29' W 134°35'1 0.7 1004.5 11.5
2017-Nov-20 05:00N 45°29' W 134°36'0 0.0 1004.6 11.5
2017-Nov-20 04:00N 45°29' W 134°36'1 0.7 1004.5 11.5
2017-Nov-20 03:00N 45°30' W 134°37'0 0.0 1004.5 11.5
2017-Nov-20 02:00N 45°30' W 134°37'1 1.3 1004.3 11.5
2017-Nov-20 01:00N 45°31' W 134°37'0 0.0 1004.2 11.5
2017-Nov-20 00:00N 45°31' W 134°37'1 1.0 1004.2 11.5
2017-Nov-19 23:00N 45°32' W 134°38'0 0.0 1004.2 11.6
2017-Nov-19 22:00N 45°32' W 134°38'1 0.7 1004.2 11.5
2017-Nov-19 21:00N 45°32' W 134°38'0 0.4 1004.5 11.5
2017-Nov-19 20:00N 45°32' W 134°37'1 0.7 1005.1 11.5
2017-Nov-19 19:00N 45°33' W 134°37'1 0.7 1005.3 11.5
2017-Nov-19 18:00N 45°34' W 134°36'0 0.0 1005.4 11.5
2017-Nov-19 17:00N 45°34' W 134°36'2 1.8 1005.1 11.6
2017-Nov-19 16:00N 45°35' W 134°35'1 0.7 1004.9 11.6
2017-Nov-19 15:00N 45°35' W 134°35'2 1.8 1004.9 11.6
2017-Nov-19 14:00N 45°37' W 134°35'1 0.6 1005.1 11.6
2017-Nov-19 13:00N 45°37' W 134°35'2 1.8 1005.2 11.6
2017-Nov-19 12:00N 45°39' W 134°35'0 0.0 1005.1 11.6
2017-Nov-19 11:00N 45°39' W 134°35'0 0.0 1005.4 11.6
2017-Nov-19 10:00N 45°39' W 134°35'1 0.1 1005.2 11.6
2017-Nov-19 06:00N 45°38' W 134°35'0 0.4 1005.3 11.6
2017-Nov-19 05:00N 45°38' W 134°36'0 0.4 1005.1 11.6
2017-Nov-19 04:00N 45°38' W 134°37'1 0.7 1005.2 11.6
2017-Nov-19 03:00N 45°38' W 134°37'1 0.7 1005.4 11.6
2017-Nov-19 02:00N 45°37' W 134°38'1 0.8 1004.7 11.6
2017-Nov-19 01:00N 45°37' W 134°39'0 0.0 1005.2 11.6
2017-Nov-19 00:00N 45°37' W 134°39'1 0.6 1005.0 11.6
2017-Nov-18 23:00N 45°37' W 134°39'0 0.0 1005.9 11.6
2017-Nov-18 22:00N 45°37' W 134°39'1 0.7 1007.0 11.7
2017-Nov-18 20:00N 45°36' W 134°41'1 0.7 1008.2 11.6
2017-Nov-18 19:00N 45°35' W 134°41'1 1.4 1008.7 11.6
2017-Nov-18 18:00N 45°35' W 134°43'1 0.6 1009.0 11.6
2017-Nov-18 17:00N 45°34' W 134°43'0 0.4 1009.4 11.6
2017-Nov-18 16:00N 45°34' W 134°43'1 1.3 1009.6 11.7
2017-Nov-18 15:00N 45°33' W 134°43'2 1.7 1010.1 11.8
2017-Nov-18 14:00N 45°32' W 134°45'1 0.3 1011.0 12.0
2017-Nov-18 12:00N 45°31' W 134°45'2 1.8 1012.5 12.0
2017-Nov-18 11:00N 45°29' W 134°45'0 0.0 1013.6 12.0
2017-Nov-18 10:00N 45°29' W 134°45'0 0.0 1014.5 12.0
2017-Nov-18 07:00N 45°29' W 134°45'1 0.8 1016.7 11.8
2017-Nov-18 06:00N 45°29' W 134°46'0 0.4 1016.9 11.8
2017-Nov-18 05:00N 45°29' W 134°46'1 1.0 1017.4 11.8
2017-Nov-18 04:00N 45°29' W 134°47'1 0.7 1017.8 11.8
2017-Nov-18 03:00N 45°28' W 134°47'0 0.0 1018.2 11.8
2017-Nov-18 02:00N 45°28' W 134°47'1 0.6 1018.3 11.8
2017-Nov-18 01:00N 45°28' W 134°47'0 0.4 1018.7 11.8
2017-Nov-18 00:00N 45°28' W 134°48'0 0.0 1019.0 11.8
2017-Nov-17 23:00N 45°28' W 134°48'0 0.0 1019.3 11.8
2017-Nov-17 22:00N 45°28' W 134°48'2 0.8 1019.9 11.8
2017-Nov-17 20:00N 45°28' W 134°50'1 0.6 1020.5 11.7
2017-Nov-17 19:00N 45°28' W 134°50'0 0.4 1020.3 11.9
2017-Nov-17 18:00N 45°28' W 134°51'0 0.4 1020.0 11.9
2017-Nov-17 17:00N 45°28' W 134°52'1 0.6 1019.7 11.9
2017-Nov-17 16:00N 45°29' W 134°52'1 0.7 1019.4 11.9
2017-Nov-17 15:00N 45°28' W 134°52'0 0.4 1018.8 11.9
2017-Nov-17 14:00N 45°28' W 134°53'0 0.0 1018.6 11.8
2017-Nov-17 13:00N 45°28' W 134°53'0 0.0 1018.4 11.8
2017-Nov-17 12:00N 45°28' W 134°53'2 1.8 1018.5 11.8
2017-Nov-17 11:00N 45°30' W 134°53'1 1.3 1018.2 11.8
2017-Nov-17 10:00N 45°29' W 134°53'1 0.4 1017.9 11.8
2017-Nov-17 07:00N 45°30' W 134°53'0 0.0 1016.4 11.9
2017-Nov-17 05:00N 45°30' W 134°53'0 0.4 1015.2 11.9
2017-Nov-17 04:00N 45°30' W 134°53'1 0.7 1014.7 11.9
2017-Nov-17 03:00N 45°31' W 134°53'1 0.6 1014.2 11.9
2017-Nov-17 02:00N 45°31' W 134°53'1 1.3 1013.5 12.0
2017-Nov-17 01:00N 45°32' W 134°54'1 0.6 1012.9 12.0
2017-Nov-17 00:00N 45°32' W 134°54'1 1.3 1012.1 12.0
2017-Nov-16 23:00N 45°33' W 134°55'0 0.0 1011.5 12.0
2017-Nov-16 22:00N 45°33' W 134°55'1 1.3 1011.0 12.0
2017-Nov-16 21:00N 45°34' W 134°54'0 0.0 1010.3 12.0
2017-Nov-16 20:00N 45°34' W 134°54'1 0.7 1009.9 12.0
2017-Nov-16 19:00N 45°35' W 134°55'0 0.0 1009.5 12.0
2017-Nov-16 18:00N 45°35' W 134°55'0 0.4 1008.4 12.1
2017-Nov-16 17:00N 45°35' W 134°54'1 0.7 1007.9 12.1
2017-Nov-16 16:00N 45°35' W 134°53'1 0.6 1006.9 12.1
2017-Nov-16 15:00N 45°36' W 134°53'0 0.0 1006.1 12.0
2017-Nov-16 14:00N 45°36' W 134°53'1 1.2 1005.7 12.0
2017-Nov-16 13:00N 45°37' W 134°53'0 0.4 1004.9 12.0
2017-Nov-16 12:00N 45°37' W 134°54'0 0.0 1004.5 12.0
2017-Nov-16 11:00N 45°37' W 134°54'0 0.0 1004.1 12.0
2017-Nov-16 10:00N 45°37' W 134°54'1 0.4 1003.9 12.0
2017-Nov-16 07:00N 45°38' W 134°55'1 0.6 1003.4 12.0
2017-Nov-16 06:00N 45°39' W 134°55'1 1.0 1002.9 12.0
2017-Nov-16 05:00N 45°40' W 134°56'1 0.6 1002.8 12.1
2017-Nov-16 04:00N 45°40' W 134°56'1 0.6 1002.7 12.2
2017-Nov-16 03:00N 45°41' W 134°56'0 0.4 1002.8 12.3
2017-Nov-16 02:00N 45°41' W 134°56'0 0.0 1002.3 12.4
2017-Nov-16 01:00N 45°41' W 134°56'2 1.8 1002.2 12.4
2017-Nov-16 00:00N 45°43' W 134°57'0 0.0 1001.8 12.4
2017-Nov-15 23:00N 45°43' W 134°57'1 1.3 1001.8 12.5
2017-Nov-15 22:00N 45°44' W 134°58'1 0.7 1001.8 12.5
2017-Nov-15 21:00N 45°44' W 134°57'0 0.0 1001.7 12.5
2017-Nov-15 20:00N 45°44' W 134°57'1 1.4 1001.9 12.5
2017-Nov-15 19:00N 45°45' W 134°59'0 0.0 1001.8 12.5
2017-Nov-15 18:00N 45°45' W 134°59'1 1.0 1001.8 12.4
2017-Nov-15 17:00N 45°46' W 135°00'1 1.0 1001.5 12.4
2017-Nov-15 16:00N 45°46' W 135°01'1 0.6 1001.1 12.5
2017-Nov-15 15:00N 45°47' W 135°01'0 0.4 1000.9 12.5
2017-Nov-15 14:00N 45°47' W 135°02'1 0.8 1001.3 12.5
2017-Nov-15 13:00N 45°47' W 135°03'1 1.0 1000.8 12.5
2017-Nov-15 12:00N 45°47' W 135°04'2 2.0 1000.9 12.5
2017-Nov-15 11:00N 45°49' W 135°05'0 0.0 1000.6 12.5
2017-Nov-15 08:00N 45°49' W 135°05'0 0.0 999.9 12.6
2017-Nov-15 07:00N 45°49' W 135°05'1 0.8 999.8 12.6
2017-Nov-15 06:00N 45°49' W 135°07'1 1.2 999.2 12.5
2017-Nov-15 05:00N 45°50' W 135°07'1 1.4 999.1 12.5
2017-Nov-15 04:00N 45°51' W 135°08'0 0.4 999.0 12.5
2017-Nov-15 03:00N 45°51' W 135°09'0 0.0 998.9 12.5
2017-Nov-15 02:00N 45°51' W 135°09'2 2.4 999.2 12.5
2017-Nov-15 01:00N 45°52' W 135°12'0 0.0 999.7 12.5
2017-Nov-15 00:00N 45°52' W 135°12'0 0.0 999.8 12.5
2017-Nov-14 23:00N 45°52' W 135°12'2 1.8 1000.2 12.5
2017-Nov-14 22:00N 45°53' W 135°14'1 1.3 1000.7 12.5
2017-Nov-14 21:00N 45°53' W 135°16'0 0.4 1001.3 12.5
2017-Nov-14 20:00N 45°53' W 135°17'1 1.4 1002.0 12.5
2017-Nov-14 19:00N 45°52' W 135°19'0 0.0 1002.7 12.5
2017-Nov-14 18:00N 45°52' W 135°19'0 0.0 1002.3 12.5
2017-Nov-14 17:00N 45°52' W 135°19'0 0.4 1002.4 12.6
2017-Nov-14 16:00N 45°52' W 135°18'1 1.3 1002.3 12.7
2017-Nov-14 15:00N 45°52' W 135°20'0 0.0 1002.6 12.7
2017-Nov-14 14:00N 45°52' W 135°20'0 0.4 1003.3 12.7
2017-Nov-14 13:00N 45°52' W 135°20'0 0.0 1003.4 12.8
2017-Nov-14 12:00N 45°52' W 135°20'4 4.1 1004.0 12.8
2017-Nov-14 11:00N 45°55' W 135°25'0 0.1 1004.0 12.8
2017-Nov-14 06:00N 45°55' W 135°25'1 1.3 1005.0 12.8
2017-Nov-14 05:00N 45°55' W 135°26'1 0.8 1004.9 12.8
2017-Nov-14 04:00N 45°55' W 135°28'1 0.8 1005.0 12.8
2017-Nov-14 03:00N 45°55' W 135°29'0 0.4 1004.5 12.8
2017-Nov-14 02:00N 45°55' W 135°29'2 1.7 1004.0 12.8
2017-Nov-14 01:00N 45°55' W 135°32'0 0.0 1004.1 12.8
2017-Nov-14 00:00N 45°55' W 135°32'0 0.0 1004.1 12.8
2017-Nov-13 23:00N 45°55' W 135°32'0 0.4 1004.7 12.8
2017-Nov-13 22:00N 45°55' W 135°31'0 0.0 1005.8 12.8
2017-Nov-13 21:00N 45°55' W 135°31'0 0.0 1006.9 12.8
2017-Nov-13 20:00N 45°55' W 135°31'2 1.8 1007.7 12.8
2017-Nov-13 19:00N 45°55' W 135°34'1 1.0 1008.2 12.9
2017-Nov-13 18:00N 45°56' W 135°35'0 0.0 1008.2 12.9
2017-Nov-13 17:00N 45°56' W 135°35'2 1.7 1008.1 12.9
2017-Nov-13 16:00N 45°57' W 135°37'1 0.8 1007.7 12.8
2017-Nov-13 15:00N 45°57' W 135°38'1 0.6 1007.1 12.8
2017-Nov-13 14:00N 45°58' W 135°38'0 0.4 1006.5 12.8
2017-Nov-13 13:00N 45°58' W 135°38'3 2.8 1005.8 12.7
2017-Nov-13 12:00N 45°59' W 135°41'1 0.7 1005.0 12.7
2017-Nov-13 11:00N 45°59' W 135°41'1 0.2 1004.3 12.7
2017-Nov-13 07:00N 45°59' W 135°41'1 1.2 1001.6 12.6
2017-Nov-13 06:00N 46°01' W 135°41'1 0.7 1001.0 12.6
2017-Nov-13 05:00N 46°01' W 135°41'1 0.7 1000.5 12.6
2017-Nov-13 04:00N 46°02' W 135°40'1 0.6 1000.8 12.7
2017-Nov-13 03:00N 46°02' W 135°40'1 0.6 1000.7 12.7
2017-Nov-13 02:00N 46°03' W 135°40'3 2.7 1000.3 12.7
2017-Nov-13 01:00N 46°05' W 135°38'0 0.0 1000.7 12.7
2017-Nov-13 00:00N 46°05' W 135°38'0 0.0 1000.7 12.7
2017-Nov-12 23:00N 46°05' W 135°38'1 1.4 1001.2 12.6
2017-Nov-12 22:00N 46°06' W 135°40'1 1.5 1001.5 12.6
2017-Nov-12 21:00N 46°07' W 135°41'0 0.0 1002.4 12.6
2017-Nov-12 20:00N 46°07' W 135°41'1 1.0 1002.8 12.6
2017-Nov-12 19:00N 46°08' W 135°43'1 1.0 1003.0 12.6
2017-Nov-12 18:00N 46°08' W 135°44'1 0.7 1003.0 12.6
2017-Nov-12 17:00N 46°08' W 135°44'0 0.0 1003.1 12.5
2017-Nov-12 16:00N 46°08' W 135°44'0 0.4 1002.8 12.5
2017-Nov-12 15:00N 46°08' W 135°45'1 0.6 1002.9 12.5
2017-Nov-12 14:00N 46°07' W 135°45'1 0.7 1002.7 12.5
2017-Nov-12 13:00N 46°07' W 135°44'1 1.0 1002.8 12.5
2017-Nov-12 12:00N 46°07' W 135°43'0 0.0 1002.9 12.5
2017-Nov-12 11:00N 46°07' W 135°43'1 0.2 1003.2 12.5
2017-Nov-12 07:00N 46°08' W 135°43'1 0.7 1004.0 12.5
2017-Nov-12 06:00N 46°08' W 135°44'1 1.0 1003.7 12.5
2017-Nov-12 05:00N 46°09' W 135°45'1 0.7 1003.8 12.5
2017-Nov-12 04:00N 46°10' W 135°46'1 0.8 1003.9 12.5
2017-Nov-12 03:00N 46°10' W 135°47'1 1.4 1003.9 12.5
2017-Nov-12 02:00N 46°10' W 135°49'1 1.5 1004.4 12.5
2017-Nov-12 01:00N 46°09' W 135°50'3 3.5 1004.6 12.5
2017-Nov-12 00:00N 46°07' W 135°53'0 0.0 1005.2 12.6
2017-Nov-11 23:00N 46°07' W 135°53'0 0.2 1005.6 12.5
2017-Nov-11 21:00N 46°07' W 135°53'1 0.6 1007.2 12.5
2017-Nov-11 20:00N 46°06' W 135°53'0 0.4 1007.7 12.5
2017-Nov-11 19:00N 46°06' W 135°52'1 0.8 1007.8 12.5
2017-Nov-11 18:00N 46°06' W 135°51'1 1.5 1007.8 12.5
2017-Nov-11 17:00N 46°07' W 135°52'1 0.7 1007.7 12.5
2017-Nov-11 16:00N 46°08' W 135°53'0 0.0 1007.8 12.5
2017-Nov-11 15:00N 46°08' W 135°53'1 1.3 1007.8 12.5
2017-Nov-11 14:00N 46°09' W 135°53'   1007.6 12.5

Dump ship's entire track history